Time;durP1;ratioP1;P1;durP2;ratioP2;P2;SDS_P1;SDS_P2;PMS_P1;PMS_P2;Temp;Humidity;BMP_temperature;BMP_pressure;BME280_temperature;BME280_humidity;BME280_pressure;Samples;Min_cycle;Max_cycle;Signal;HPM_P1;HPM_P2
2022/03/13 00:01:56;;;;;;;6.43;2.35;;;;;;;;;;5074578;28;20028;-67
2022/03/13 00:04:22;;;;;;;4.95;2.40;;;;;;;;;;5072786;28;20035;-67
2022/03/13 00:06:49;;;;;;;6.32;2.70;;;;;;;;;;5054369;28;20029;-68
2022/03/13 00:09:15;;;;;;;11.85;3.40;;;9.10;99.90;;;;;;5054073;28;20025;-66
2022/03/13 00:11:43;;;;;;;5.05;2.40;;;;;;;;;;5054009;28;20112;-68
2022/03/13 00:14:10;;;;;;;5.72;2.80;;;;;;;;;;5036050;28;20438;-68
2022/03/13 00:16:36;;;;;;;5.57;2.60;;;;;;;;;;5053901;28;20389;-67
2022/03/13 00:19:03;;;;;;;4.43;2.38;;;;;;;;;;5054117;28;20523;-68
2022/03/13 00:21:29;;;;;;;7.88;2.65;;;;;;;;;;5053770;28;20451;-67
2022/03/13 00:23:55;;;;;;;7.25;2.75;;;;;;;;;;5053739;28;20051;-68
2022/03/13 00:26:22;;;;;;;6.82;2.60;;;;;;;;;;5053763;28;20032;-69
2022/03/13 00:28:48;;;;;;;6.38;2.20;;;;;;;;;;5053698;28;20074;-67
2022/03/13 00:31:14;;;;;;;5.63;2.40;;;;;;;;;;5053967;28;20025;-68
2022/03/13 00:33:41;;;;;;;8.23;2.63;;;;;;;;;;5053622;28;20029;-69
2022/03/13 00:36:07;;;;;;;5.95;2.80;;;;;;;;;;5053863;28;20029;-68
2022/03/13 00:38:33;;;;;;;5.93;2.72;;;;;;;;;;5053820;28;20546;-66
2022/03/13 00:40:59;;;;;;;8.68;2.92;;;;;;;;;;5053393;28;20115;-66
2022/03/13 00:43:29;;;;;;;4.90;2.67;;;;;;;;;;5053468;28;20025;-67
2022/03/13 00:45:55;;;;;;;6.65;2.85;;;;;;;;;;5053752;28;20037;-68
2022/03/13 00:48:22;;;;;;;6.22;2.22;;;;;;;;;;5053417;28;20028;-67
2022/03/13 00:50:48;;;;;;;4.22;2.03;;;;;;;;;;5053231;28;20082;-66
2022/03/13 00:53:14;;;;;;;5.50;2.75;;;;;;;;;;5053866;28;20029;-67
2022/03/13 00:55:40;;;;;;;4.85;2.17;;;;;;;;;;5053237;28;20032;-67
2022/03/13 00:58:06;;;;;;;7.80;2.88;;;;;;;;;;5053289;28;20033;-68
2022/03/13 01:00:33;;;;;;;5.85;2.40;;;;;;;;;;5053182;28;20374;-68
2022/03/13 01:02:59;;;;;;;5.35;2.15;;;;;;;;;;5053488;28;20031;-67
2022/03/13 01:05:26;;;;;;;5.15;2.17;;;;;;;;;;5051400;28;20051;-70
2022/03/13 01:07:53;;;;;;;4.15;2.38;;;;;;;;;;5073488;28;20527;-68
2022/03/13 01:10:19;;;;;;;6.03;2.50;;;;;;;;;;5073214;28;20024;-68
2022/03/13 01:12:45;;;;;;;6.18;2.60;;;;;;;;;;5073743;28;20099;-68
2022/03/13 01:15:11;;;;;;;15.00;3.47;;;;;;;;;;5073143;28;20028;-67
2022/03/13 01:17:37;;;;;;;6.13;2.50;;;;;;;;;;5073676;28;20025;-67
2022/03/13 01:20:05;;;;;;;10.07;3.08;;;;;;;;;;5073009;28;20032;-68
2022/03/13 01:22:32;;;;;;;7.15;2.47;;;;;;;;;;5073326;28;20025;-67
2022/03/13 01:24:58;;;;;;;7.68;2.50;;;;;;;;;;5073347;28;20028;-67
2022/03/13 01:27:24;;;;;;;8.07;2.55;;;;;;;;;;5073282;28;20424;-69
2022/03/13 01:29:50;;;;;;;10.02;2.88;;;;;;;;;;5073011;28;20025;-67
2022/03/13 01:32:17;;;;;;;6.47;2.30;;;;;;;;;;5072506;28;20432;-69
2022/03/13 01:34:44;;;;;;;6.95;2.00;;;;;;;;;;5073225;28;20032;-68
2022/03/13 01:37:33;;;;;;;9.27;2.35;;;;;;;;;;5072950;28;20042;-69
2022/03/13 01:40:00;;;;;;;5.95;2.03;;;;;;;;;;5065167;28;20036;-68
2022/03/13 01:42:26;;;;;;;4.25;1.98;;;;;;;;;;5073412;28;20021;-69
2022/03/13 01:44:53;;;;;;;5.97;2.30;;;;;;;;;;5072867;28;20035;-66
2022/03/13 01:47:19;;;;;;;8.63;2.53;;;;;;;;;;5072838;28;20473;-67
2022/03/13 01:49:46;;;;;;;5.22;2.15;;;;;;;;;;5072821;28;20059;-68
2022/03/13 01:52:12;;;;;;;4.80;2.08;;;;;;;;;;5073054;28;20033;-69
2022/03/13 01:54:41;;;;;;;6.68;2.72;;;;;;;;;;5072712;28;20033;-67
2022/03/13 01:57:07;;;;;;;7.72;2.40;;;;;;;;;;5072757;28;20071;-68
2022/03/13 01:59:33;;;;;;;6.10;2.38;;;;;;;;;;5072741;28;20416;-68
2022/03/13 02:01:59;;;;;;;7.20;2.35;;;;;;;;;;5073628;28;20024;-69
2022/03/13 02:04:27;;;;;;;6.10;2.15;;;;;;;;;;5074635;28;20038;-67
2022/03/13 02:06:55;;;;;;;9.27;2.67;;;;;;;;;;5056395;28;20025;-68
2022/03/13 02:09:21;;;;;;;7.68;2.20;;;;;;;;;;5056598;28;20381;-67
2022/03/13 02:11:48;;;;;;;7.72;2.72;;;;;;;;;;5056280;28;20025;-68
2022/03/13 02:14:17;;;;;;;8.80;2.47;;;;;;;;;;5056278;28;20393;-68
2022/03/13 02:16:44;;;;;;;9.37;2.70;;;;;;;;;;5056271;28;20036;-70
2022/03/13 02:19:10;;;;;;;7.18;2.08;;;;;;;;;;5056761;28;20100;-68
2022/03/13 02:21:42;;;;;;;9.60;3.00;;;;;;;;;;5056053;28;20504;-66
2022/03/13 02:24:10;;;;;;;11.70;2.13;;;;;;;;;;5056127;28;20021;-68
2022/03/13 02:26:36;;;;;;;5.50;2.35;;;;;;;;;;5056315;28;20104;-67
2022/03/13 02:29:02;;;;;;;8.65;2.78;;;;;;;;;;5056001;28;20104;-68
2022/03/13 02:31:34;;;;;;;10.38;2.83;;;;;;;;;;5055926;28;20111;-69
2022/03/13 02:34:00;;;;;;;9.27;1.77;;;;;;;;;;5056233;28;20376;-69
2022/03/13 02:36:32;;;;;;;7.60;2.20;;;;;;;;;;5056104;28;20051;-66
2022/03/13 02:38:59;;;;;;;9.60;2.30;;;;;;;;;;5056309;28;20025;-68
2022/03/13 02:41:26;;;;;;;11.13;2.20;;;;;;;;;;5055885;28;20033;-67
2022/03/13 02:43:53;;;;;;;12.50;2.60;;;;;;;;;;5055705;28;20025;-66
2022/03/13 02:46:20;;;;;;;8.65;2.53;;;;;;;;;;5055601;28;20435;-68
2022/03/13 02:48:46;;;;;;;13.10;2.08;;;;;;;;;;5055596;28;20055;-69
2022/03/13 02:51:13;;;;;;;9.88;2.20;;;;;;;;;;5055794;28;20086;-67
2022/03/13 02:53:39;;;;;;;9.15;2.28;;;;;;;;;;5055785;28;20021;-69
2022/03/13 02:56:05;;;;;;;9.77;2.13;;;;;;;;;;5055400;28;20473;-68
2022/03/13 02:58:32;;;;;;;17.70;2.97;;;;;;;;;;5055693;28;20028;-66
2022/03/13 03:00:58;;;;;;;10.65;2.47;;;;;;;;;;5037427;28;20424;-70
2022/03/13 03:03:24;;;;;;;7.88;2.17;;;;;;;;;;5055369;28;20140;-67
2022/03/13 03:05:51;;;;;;;16.15;2.38;;;;;;;;;;5055069;28;20443;-68
2022/03/13 03:08:17;;;;;;;18.40;3.25;;;;;;;;;;5055227;28;20025;-67
2022/03/13 03:10:44;;;;;;;12.15;1.90;;;;;;;;;;5055181;28;20033;-68
2022/03/13 03:13:11;;;;;;;11.27;2.42;;;;;;;;;;5054833;28;20025;-67
2022/03/13 03:15:37;;;;;;;11.80;2.35;;;;;;;;;;5055712;28;20473;-69
2022/03/13 03:18:04;;;;;;;9.77;2.47;;;;;;;;;;5055335;28;20028;-68
2022/03/13 03:20:30;;;;;;;15.32;2.90;;;;;;;;;;5054961;28;20568;-68
2022/03/13 03:22:56;;;;;;;8.05;2.45;;;;;;;;;;5055261;28;20017;-68
2022/03/13 03:25:24;;;;;;;8.52;2.10;;;;;;;;;;5054905;28;20083;-68
2022/03/13 03:27:53;;;;;;;22.95;9.30;;;;;;;;;;5054871;28;20086;-67
2022/03/13 03:30:24;;;;;;;36.42;17.75;;;;;;;;;;5054825;28;20037;-68
2022/03/13 03:32:50;;;;;;;18.67;6.93;;;;;;;;;;5055064;28;20025;-67
2022/03/13 03:35:20;;;;;;;17.83;6.95;;;;;;;;;;5054707;28;20036;-68
2022/03/13 03:37:47;;;;;;;20.38;8.32;;;;;;;;;;5054672;28;20103;-67
2022/03/13 03:40:13;;;;;;;26.45;9.00;;;;;;;;;;5054537;28;20036;-68
2022/03/13 03:42:39;;;;;;;24.30;7.88;;;;;;;;;;5054569;28;20017;-67
2022/03/13 03:45:06;;;;;;;20.08;5.30;;;;;;;;;;5054522;28;20100;-68
2022/03/13 03:47:32;;;;;;;18.50;5.05;;;;;;;;;;5054467;28;20107;-68
2022/03/13 03:49:58;;;;;;;20.40;5.60;;;;;;;;;;5054434;28;20025;-67
2022/03/13 03:52:24;;;;;;;13.10;3.05;;;;;;;;;;5054421;28;20024;-68
2022/03/13 03:54:51;;;;;;;11.68;2.65;;;;;;;;;;5054304;28;20025;-69
2022/03/13 03:57:18;;;;;;;14.15;4.30;;;;;;;;;;5054309;28;20481;-67
2022/03/13 03:59:44;;;;;;;17.67;3.72;;;;;;;;;;5054247;28;20032;-68
2022/03/13 04:02:10;;;;;;;15.55;4.03;;;;;;;;;;5054405;28;20033;-68
2022/03/13 04:04:36;;;;;;;16.52;3.10;;;;;;;;;;5054189;28;20127;-66
2022/03/13 04:07:03;;;;;;;17.17;4.72;;;;;;;;;;5054135;28;20029;-66
2022/03/13 04:09:29;;;;;;;19.52;3.42;;;;;;;;;;5054091;28;20107;-68
2022/03/13 04:11:55;;;;;;;14.35;3.00;;;;;;;;;;5054028;28;20068;-69
2022/03/13 04:14:21;;;;;;;18.45;3.53;;;;;;;;;;5054267;28;20113;-67
2022/03/13 04:16:47;;;;;;;14.35;4.10;;;;;;;;;;5054003;28;20513;-68
2022/03/13 04:19:13;;;;;;;12.65;2.63;;;;;;;;;;5053843;28;20049;-68
2022/03/13 04:21:41;;;;;;;16.63;5.72;;;;;;;;;;5054281;28;20034;-69
2022/03/13 04:24:08;;;;;;;21.40;3.55;;;;;;;;;;5053866;28;20021;-68
2022/03/13 04:26:34;;;;;;;19.27;3.58;;;;;;;;;;5053548;28;20093;-68
2022/03/13 04:29:00;;;;;;;16.98;3.53;;;;;;;;;;5054047;28;20029;-66
2022/03/13 04:31:26;;;;;;;13.68;3.30;;;;;;;;;;5053713;28;20397;-69
2022/03/13 04:33:52;;;;;;;12.02;3.15;;;;;;;;;;5053650;28;20107;-70
2022/03/13 04:36:24;;;;;;;15.20;3.47;;;;;;;;;;5053632;28;20028;-69
2022/03/13 04:38:50;;;;;;;12.48;3.35;;;;;;;;;;5054154;28;20106;-68
2022/03/13 04:41:16;;;;;;;15.20;3.03;;;;;;;;;;5053447;28;20024;-67
2022/03/13 04:43:43;;;;;;;15.05;3.33;;;;;;;;;;5053500;28;20039;-68
2022/03/13 04:46:09;;;;;;;19.75;3.03;;;;;;;;;;5053766;28;20485;-68
2022/03/13 04:48:35;;;;;;;23.02;3.22;;;;;;;;;;5053442;28;20036;-68
2022/03/13 04:51:02;;;;;;;15.48;3.28;;;;;;;;;;5053966;28;20108;-66
2022/03/13 04:53:28;;;;;;;12.82;3.42;;;;;;;;;;5053931;28;20457;-65
2022/03/13 04:55:55;;;;;;;18.88;4.60;;;;;;;;;;5053243;28;20025;-68
2022/03/13 04:58:21;;;;;;;11.35;2.75;;;;;;;;;;5053255;28;20481;-68
2022/03/13 05:00:48;;;;;;;18.42;4.32;;;;;;;;;;5053189;28;20028;-67
2022/03/13 05:03:14;;;;;;;16.42;4.43;;;;;;;;;;5053224;28;20032;-69
2022/03/13 05:05:40;;;;;;;19.63;5.88;;;;;;;;;;5053007;28;20482;-67
2022/03/13 05:08:13;;;;;;;14.82;3.97;;;;;;;;;;5053415;28;20021;-67
2022/03/13 05:10:39;;;;;;;18.65;3.67;;;;;;;;;;5053731;28;20021;-67
2022/03/13 05:13:06;;;;;;;21.33;5.03;;;;;;;;;;5053094;28;20108;-69
2022/03/13 05:15:33;;;;;;;15.38;3.30;;;;;;;;;;5053099;28;20032;-68
2022/03/13 05:18:00;;;;;;;17.55;3.45;;;;;;;;;;5053026;28;20040;-67
2022/03/13 05:20:26;;;;;;;18.77;3.97;;;;;;;;;;5053249;28;20088;-68
2022/03/13 05:22:53;;;;;;;24.83;4.63;;;;;;;;;;5053019;28;20036;-67
2022/03/13 05:25:19;;;;;;;18.67;5.45;;;;;;;;;;5053034;28;20052;-68
2022/03/13 05:27:45;;;;;;;19.77;6.53;;;;;;;;;;5052993;28;20053;-68
2022/03/13 05:30:11;;;;;;;20.55;3.30;;;;;;;;;;5052959;28;20056;-67
2022/03/13 05:32:38;;;;;;;16.65;5.45;;;;;;;;;;5052984;28;20025;-68
2022/03/13 05:35:04;;;;;;;19.10;3.95;;;;;;;;;;5052919;28;20071;-69
2022/03/13 05:37:30;;;;;;;19.13;4.50;;;;;;;;;;5056574;28;20033;-68
2022/03/13 05:39:56;;;;;;;27.83;11.18;;;;;;;;;;5057072;28;20095;-67
2022/03/13 05:42:24;;;;;;;19.10;3.20;;;;;;;;;;5057128;28;20452;-67
2022/03/13 05:44:54;;;;;;;20.63;4.30;;;;;;;;;;5057112;28;20104;-67
2022/03/13 05:47:20;;;;;;;14.15;3.75;;;;;;;;;;5057010;28;20091;-67
2022/03/13 05:49:47;;;;;;;16.25;4.13;;;;;;;;;;5056746;28;20029;-67
2022/03/13 05:52:14;;;;;;;22.95;3.83;;;;;;;;;;5056914;28;20037;-68
2022/03/13 05:54:41;;;;;;;21.80;5.03;;;;;;;;;;5056585;28;20017;-68
2022/03/13 05:57:09;;;;;;;15.75;3.53;;;;;;;;;;5056620;28;20021;-68
2022/03/13 05:59:35;;;;;;;22.17;4.35;;;;;;;;;;5056836;28;20055;-69
2022/03/13 06:02:03;;;;;;;20.52;3.75;;;;;;;;;;5056438;28;20036;-68
2022/03/13 06:04:29;;;;;;;22.40;4.53;;;;;;;;;;5056286;28;20017;-65
2022/03/13 06:06:55;;;;;;;17.55;5.05;;;;;;;;;;5056445;28;20029;-68
2022/03/13 06:09:22;;;;;;;19.50;4.30;;;;;;;;;;5056642;28;20021;-67
2022/03/13 06:11:47;;;;;;;16.60;4.90;;;;;;;;;;5056292;28;20079;-67
2022/03/13 06:14:16;;;;;;;23.08;4.88;;;;;;;;;;5056148;28;20501;-67
2022/03/13 06:16:41;;;;;;;19.23;4.13;;;;;;;;;;5056544;28;20021;-68
2022/03/13 06:19:07;;;;;;;20.35;4.57;;;;;;;;;;5056475;28;20039;-67
2022/03/13 06:21:33;;;;;;;21.75;4.78;;;;;;;;;;5056072;28;20033;-69
2022/03/13 06:24:00;;;;;;;17.67;4.50;;;;;;;;;;5056117;28;20385;-68
2022/03/13 06:26:26;;;;;;;21.52;7.03;;;;;;;;;;5056377;28;20070;-69
2022/03/13 06:28:52;;;;;;;17.17;4.47;;;;;;;;;;5056323;28;20029;-67
2022/03/13 06:31:18;;;;;;;20.00;6.20;;;;;;;;;;5055952;28;20440;-70
2022/03/13 06:33:45;;;;;;;21.67;4.82;;;;;;;;;;5055927;28;20040;-68
2022/03/13 06:36:11;;;;;;;15.02;3.58;;;;;;;;;;5056440;28;20055;-67
2022/03/13 06:38:37;;;;;;;21.45;4.55;;;;;;;;;;5055820;28;20067;-68
2022/03/13 06:41:03;;;;;;;19.95;4.53;;;;;;;;;;5055691;28;20029;-68
2022/03/13 06:43:30;;;;;;;22.38;3.92;;;;;;;;;;5056255;28;20057;-68
2022/03/13 06:45:56;;;;;;;14.05;3.58;;;;;;;;;;5055968;28;20021;-68
2022/03/13 06:48:22;;;;;;;16.17;3.72;;;;;;;;;;5054866;28;20021;-69
2022/03/13 06:50:48;;;;;;;21.33;5.82;;;;;;;;;;5055875;28;20056;-68
2022/03/13 06:53:14;;;;;;;20.67;3.50;;;;;;;;;;5055575;28;20033;-67
2022/03/13 06:55:41;;;;;;;24.90;7.90;;;;;;;;;;5055444;28;20035;-67
2022/03/13 06:58:07;;;;;;;47.38;19.38;;;;;;;;;;5055497;28;20063;-68
2022/03/13 07:00:33;;;;;;;24.25;7.45;;;;;;;;;;5055295;28;20107;-67
2022/03/13 07:02:59;;;;;;;41.05;15.80;;;;;;;;;;5055375;28;20477;-67
2022/03/13 07:05:26;;;;;;;43.15;10.18;;;;;;;;;;5055113;28;20123;-68
2022/03/13 07:07:54;;;;;;;49.55;19.02;;;;;;;;;;5055295;28;20052;-69
2022/03/13 07:10:20;;;;;;;42.70;16.88;;;;;;;;;;5055227;28;20025;-67
2022/03/13 07:12:47;;;;;;;31.17;12.90;;;;;;;;;;5055188;28;20032;-68
2022/03/13 07:15:14;;;;;;;23.55;8.27;;;;;;;;;;5055128;28;20064;-69
2022/03/13 07:17:44;;;;;;;34.47;11.20;;;;;;;;;;5037186;28;20120;-67
2022/03/13 07:20:10;;;;;;;;;;;;;;;;;;5055421;28;20082;-68
2022/03/13 07:22:36;;;;;;;53.15;25.27;;;;;;;;;;5055266;28;19909;-68
2022/03/13 07:25:02;;;;;;;35.70;18.80;;;;;;;;;;5054954;28;20033;-67
2022/03/13 07:27:28;;;;;;;33.45;13.73;;;;;;;;;;5055167;28;20021;-68
2022/03/13 07:29:55;;;;;;;47.47;20.30;;;;;;;;;;5054833;28;20036;-66
2022/03/13 07:32:21;;;;;;;66.50;30.48;;;;;;;;;;5055078;28;20025;-69
2022/03/13 07:34:47;;;;;;;45.85;20.30;;;;;;;;;;5054775;28;20494;-69
2022/03/13 07:37:13;;;;;;;27.25;10.15;;;;;;;;;;5054680;28;20104;-67
2022/03/13 07:39:41;;;;;;;19.92;6.57;;;;;;;;;;5054917;28;20056;-68
2022/03/13 07:42:09;;;;;;;27.98;12.07;;;;;;;;;;5054837;28;20112;-68
2022/03/13 07:44:35;;;;;;;19.83;6.78;;;;;;;;;;5054866;28;20374;-68
2022/03/13 07:47:01;;;;;;;15.88;4.70;;;;;;;;;;5054507;28;20029;-67
2022/03/13 07:49:27;;;;;;;22.35;3.75;;;;;;;;;;5054742;28;20101;-68
2022/03/13 07:51:53;;;;;;;23.27;4.28;;;;;;;;;;5054431;28;20485;-68
2022/03/13 07:54:20;;;;;;;16.95;4.78;;;;;;;;;;5054324;28;20052;-67
2022/03/13 07:56:46;;;;;;;19.25;3.55;;;;;;;;;;5054417;28;20546;-68
2022/03/13 07:59:12;;;;;;;13.07;4.43;;;;;;;;;;5053718;28;20025;-66
2022/03/13 08:01:38;;;;;;;23.02;4.28;;;;;;;;;;5054076;28;20499;-68
2022/03/13 08:04:07;;;;;;;14.07;3.30;;;;;;;;;;5054726;28;20021;-68
2022/03/13 08:06:34;;;;;;;15.80;4.93;;;;;;;;;;5053778;28;20055;-68
2022/03/13 08:09:01;;;;;;;22.42;5.38;;;;;;;;;;5054388;28;20017;-68
2022/03/13 08:11:27;;;;;;;14.02;5.38;;;;;;;;;;5054322;28;20478;-67
2022/03/13 08:13:53;;;;;;;21.83;9.45;;;;;;;;;;5053996;28;20029;-67
2022/03/13 08:16:19;;;;;;;11.80;3.60;;;;;;;;;;5054503;28;20527;-70
2022/03/13 08:18:45;;;;;;;16.77;3.60;;;;;;;;;;5053894;28;20053;-67
2022/03/13 08:21:12;;;;;;;14.02;3.40;;;;;;;;;;5053820;28;20040;-67
2022/03/13 08:23:38;;;;;;;16.60;3.08;;;;;;;;;;5053870;28;20438;-68
2022/03/13 08:26:04;;;;;;;25.27;5.15;;;;;;;;;;5053772;28;20469;-68
2022/03/13 08:28:31;;;;;;;12.30;3.65;;;;;;;;;;5053718;28;20027;-68
2022/03/13 08:30:57;;;;;;;11.63;3.75;;;;;;;;;;5053949;28;20112;-67
2022/03/13 08:33:23;;;;;;;17.55;7.05;;;;;;;;;;5053646;28;20103;-68
2022/03/13 08:35:49;;;;;;;15.35;5.95;;;;;;;;;;5053633;28;20543;-69
2022/03/13 08:38:16;;;;;;;13.73;3.97;;;;;;;;;;5053856;28;20102;-69
2022/03/13 08:40:42;;;;;;;12.05;3.67;;;;;;;;;;5053494;28;20032;-68
2022/03/13 08:43:08;;;;;;;16.40;5.13;;;;;;;;;;5053735;28;20485;-69
2022/03/13 08:45:34;;;;;;;15.18;3.45;;;;;;;;;;5053462;28;20027;-69
2022/03/13 08:48:00;;;;;;;11.55;3.92;;;;;;;;;;5053668;28;20044;-66
2022/03/13 08:50:26;;;;;;;14.57;5.13;;;;;;;;;;5053364;28;20033;-68
2022/03/13 08:52:52;;;;;;;14.82;4.95;;;;;;;;;;5053637;28;20079;-68
2022/03/13 08:55:19;;;;;;;15.88;5.05;;;;;;;;;;5053231;28;20029;-68
2022/03/13 08:57:45;;;;;;;13.65;4.10;;;;;;;;;;5053326;28;20070;-67
2022/03/13 09:00:14;;;;;;;9.70;3.20;;;;;;;;;;5053472;28;20112;-69
2022/03/13 09:02:40;;;;;;;11.95;4.65;;;;;;;;;;5053805;28;20027;-66
2022/03/13 09:05:06;;;;;;;8.07;2.40;;;;;;;;;;5053024;28;20123;-67
2022/03/13 09:07:32;;;;;;;12.23;3.55;;;;;;;;;;5053220;28;20017;-67
2022/03/13 09:09:58;;;;;;;9.13;3.55;;;;;;;;;;5053711;28;20032;-67
2022/03/13 09:12:24;;;;;;;12.18;2.90;;;;;;;;;;5053087;28;20025;-68
2022/03/13 09:14:50;;;;;;;9.45;3.47;;;;;;;;;;5053101;28;20047;-68
2022/03/13 09:17:17;;;;;;;16.38;3.38;;;;;;;;;;5053069;28;20029;-69
2022/03/13 09:19:43;;;;;;;9.80;4.20;;;;;;;;;;5053082;28;20114;-68
2022/03/13 09:22:13;;;;;;;10.98;3.58;;;;;;;;;;5053005;28;20025;-68
2022/03/13 09:24:39;;;;;;;17.77;3.55;;;;;;;;;;5053039;28;20021;-67
2022/03/13 09:27:05;;;;;;;9.90;3.90;;;;;;;;;;5052976;28;20386;-68
2022/03/13 09:29:31;;;;;;;7.32;2.42;;;;;;;;;;5052957;28;20037;-68
2022/03/13 09:31:57;;;;;;;42.88;20.00;;;;;;;;;;5053531;28;20032;-69
2022/03/13 09:34:24;;;;;;;14.43;6.15;;;;;;;;;;5053172;28;20112;-67
2022/03/13 09:36:50;;;;;;;19.60;7.35;;;;;;;;;;5053154;28;20031;-68
2022/03/13 09:39:16;;;;;;;34.70;14.65;;;;;;;;;;5052878;28;20104;-67
2022/03/13 09:41:43;;;;;;;18.95;8.07;;;;;;;;;;5053074;28;20094;-67
2022/03/13 09:44:09;;;;;;;28.55;17.60;;;;;;;;;;5052848;28;20025;-67
2022/03/13 09:46:36;;;;;;;33.95;18.35;;;;;;;;;;5053089;28;20363;-70
2022/03/13 09:49:02;;;;;;;27.08;12.10;;;;;;;;;;5052863;28;20025;-69
2022/03/13 09:51:28;;;;;;;37.85;22.70;;;;;;;;;;5052818;28;20025;-68
2022/03/13 09:53:54;;;;;;;24.67;12.20;;;;;;;;;;5052766;28;20497;-68
2022/03/13 09:56:20;;;;;;;24.90;12.95;;;;;;;;;;5052682;28;20024;-67
2022/03/13 09:58:46;;;;;;;18.70;9.30;;;;;;;;;;5053027;28;20025;-67
2022/03/13 10:01:12;;;;;;;17.20;7.20;;;;;;;;;;5052651;28;20051;-67
2022/03/13 10:03:39;;;;;;;18.90;9.38;;;;;;;;;;5052673;28;20029;-68
2022/03/13 10:06:05;;;;;;;14.60;6.57;;;;;;;;;;5052454;28;20041;-67
2022/03/13 10:08:32;;;;;;;13.75;3.72;;;;;;;;;;5052944;28;20021;-68
2022/03/13 10:10:59;;;;;;;11.48;4.00;;;;;;;;;;5052621;28;20029;-68
2022/03/13 10:13:35;;;;;;;12.43;3.40;;;;;;;;;;5052865;28;20431;-67
2022/03/13 10:16:02;;;;;;;10.65;3.13;;;;;;;;;;5052560;28;20025;-68
2022/03/13 10:18:28;;;;;;;10.15;3.00;;;;;;;;;;5052514;28;20036;-70
2022/03/13 10:20:55;;;;;;;12.55;2.85;;;;;;;;;;5052413;28;20051;-70
2022/03/13 10:23:22;;;;;;;7.65;2.28;;;;;;;;;;5054047;28;20056;-67
2022/03/13 10:25:52;;;;;;;10.95;3.63;;;;;;;;;;5056106;28;20021;-67
2022/03/13 10:28:20;;;;;;;11.02;3.28;;;;;;;;;;5056022;28;20028;-69
2022/03/13 10:31:11;;;;;;;9.82;2.90;;;;;;;;;;5056495;28;20031;-68
2022/03/13 10:33:43;;;;;;;11.10;2.67;;;;;;;;;;5044816;28;20486;-68
2022/03/13 10:36:14;;;;;;;14.93;3.50;;;;;;;;;;5037999;28;20120;-67
2022/03/13 10:38:40;;;;;;;11.48;2.80;;;;;;;;;;5055859;28;20482;-69
2022/03/13 10:41:10;;;;;;;11.75;2.88;;;;;;;;;;5055761;28;20025;-69
2022/03/13 10:43:51;;;;;;;9.80;3.05;;;;;;;;;;5055783;28;20103;-68
2022/03/13 10:46:36;;;;;;;17.63;3.42;;;;;;;;;;5056003;28;20427;-69
2022/03/13 10:49:05;;;;;;;12.98;3.55;;;;;;;;;;5055700;28;20025;-68
2022/03/13 10:51:41;;;;;;;11.70;3.15;;;;;;;;;;5055638;28;20100;-67
2022/03/13 10:54:07;;;;;;;12.07;2.65;;;;;;;;;;5055577;28;20021;-69
2022/03/13 10:56:34;;;;;;;12.25;2.80;;;;;;;;;;5055430;28;20469;-68
2022/03/13 10:59:09;;;;;;;11.27;2.72;;;;;;;;;;5055475;28;20119;-67
2022/03/13 11:01:35;;;;;;;12.77;3.00;;;;;;;;;;5055682;28;20024;-67
2022/03/13 11:04:09;;;;;;;11.82;2.88;;;;;;;;;;5055711;28;20029;-68
2022/03/13 11:06:36;;;;;;;12.20;3.25;;;;;;;;;;5054941;28;20154;-70
2022/03/13 11:09:02;;;;;;;8.45;2.88;;;;;;;;;;5055278;28;20021;-67
2022/03/13 11:11:28;;;;;;;10.77;2.75;;;;;;;;;;5055234;28;20029;-68
2022/03/13 11:13:56;;;;;;;13.18;2.75;;;;;;;;;;5055223;28;20029;-68
2022/03/13 11:16:31;;;;;;;11.98;2.60;;;;;;;;;;5055754;28;20488;-68
2022/03/13 11:19:05;;;;;;;7.95;2.10;;;;;;;;;;5055065;28;20098;-69
2022/03/13 11:21:32;;;;;;;12.50;3.03;;;;;;;;;;5055574;28;20032;-69
2022/03/13 11:23:58;;;;;;;9.95;2.80;;;;;;;;;;5055801;28;20347;-69
2022/03/13 11:26:30;;;;;;;15.70;3.45;;;;;;;;;;5054981;28;20029;-68
2022/03/13 11:28:58;;;;;;;11.27;3.13;;;;;;;;;;5055248;28;20028;-71
2022/03/13 11:31:42;;;;;;;9.35;2.53;;;;;;;;;;5054857;28;20017;-67
2022/03/13 11:34:11;;;;;;;14.38;2.67;;;;;;;;;;5054925;28;20032;-68
2022/03/13 11:36:37;;;;;;;9.15;2.13;;;;;;;;;;5054775;28;20554;-68
2022/03/13 11:39:04;;;;;;;11.88;2.63;;;;;;;;;;5054723;28;20033;-67
2022/03/13 11:41:37;;;;;;;10.57;2.92;;;;;;;;;;5054637;28;20031;-68
2022/03/13 11:44:28;;;;;;;10.82;2.83;;;;;;;;;;5055239;28;20397;-69
2022/03/13 11:46:55;;;;;;;13.30;2.67;;;;;;;;;;5054809;28;20070;-68
2022/03/13 11:49:27;;;;;;;13.48;2.95;;;;;;;;;;5054523;28;20029;-69
2022/03/13 11:52:17;;;;;;;18.67;10.63;;;;;;;;;;5054425;28;20033;-69
2022/03/13 11:54:43;;;;;;;;;;;;;;;;;;5055321;28;20533;-68
2022/03/13 11:57:13;;;;;;;9.80;2.20;;;;;;;;;;5054735;28;19956;-68
2022/03/13 11:59:39;;;;;;;9.52;2.15;;;;;;;;;;5054924;28;20024;-66
2022/03/13 12:02:09;;;;;;;8.55;2.00;;;;;;;;;;5054191;28;20029;-68
2022/03/13 12:04:35;;;;;;;11.55;2.88;;;;;;;;;;5054050;28;20048;-67
2022/03/13 12:07:06;;;;;;;9.52;2.10;;;;;;;;;;5054815;28;20370;-68
2022/03/13 12:09:33;;;;;;;7.93;2.58;;;;;;;;;;5054522;28;20108;-68
2022/03/13 12:12:02;;;;;;;9.77;2.83;;;;;;;;;;5054082;28;20063;-68
2022/03/13 12:14:47;;;;;;;11.52;2.20;;;;;;;;;;5054038;28;20021;-66
2022/03/13 12:17:15;;;;;;;10.35;2.33;;;;;;;;;;5054005;28;20040;-69
2022/03/13 12:19:42;;;;;;;9.55;2.65;;;;;;;;;;5053906;28;20498;-69
2022/03/13 12:22:08;;;;;;;10.23;2.72;;;;;;;;;;5054053;28;20074;-68
2022/03/13 12:24:35;;;;;;;9.25;3.00;;;9.20;99.90;;;;;;5054114;28;20481;-69
2022/03/13 12:27:02;;;;;;;10.32;2.42;;;;;;;;;;5054084;28;20025;-68
2022/03/13 12:29:32;;;;;;;9.82;2.00;;;;;;;;;;5053768;28;20017;-69
2022/03/13 12:31:58;;;;;;;;;;;;;;;;;;5054517;28;20028;-68
2022/03/13 12:34:25;;;;;;;9.50;2.10;;;;;;;;;;5054241;28;19905;-69
2022/03/13 12:36:53;;;;;;;13.60;4.85;;;;;;;;;;5053940;28;20031;-69
2022/03/13 12:39:20;;;;;;;7.43;1.83;;;;;;;;;;5053635;28;20029;-67
2022/03/13 12:41:54;;;;;;;7.82;1.95;;;;;;;;;;5053503;28;20025;-67
2022/03/13 12:44:22;;;;;;;9.50;1.80;;;;;;;;;;5054189;28;20032;-68
2022/03/13 12:46:52;;;;;;;6.68;1.75;;;;;;;;;;5053237;28;20045;-68
2022/03/13 12:49:26;;;;;;;4.28;1.60;;;;;;;;;;5054050;28;20078;-68
2022/03/13 12:51:52;;;;;;;5.10;1.20;;;;;;;;;;5053770;28;20025;-68
2022/03/13 12:54:29;;;;;;;5.97;1.63;;;;;;;;;;5053376;28;20033;-68
2022/03/13 12:57:00;;;;;;;4.65;1.30;;;;;;;;;;5053609;28;20023;-69
2022/03/13 12:59:29;;;;;;;7.95;1.65;;;;;;;;;;5053284;28;20029;-69
2022/03/13 13:02:01;;;;;;;4.18;1.58;;;;;;;;;;5053250;28;20033;-68
2022/03/13 13:04:27;;;;;;;8.82;1.90;;;;;;;;;;5053310;28;20032;-66
2022/03/13 13:06:53;;;;;;;6.20;1.35;;;;;;;;;;5053251;28;20397;-67
2022/03/13 13:09:29;;;;;;;5.88;1.40;;;17.10;90.80;;;;;;5053187;28;20054;-67
2022/03/13 13:11:55;;;;;;;5.63;1.30;;;17.10;98.70;;;;;;5053515;28;20032;-68
2022/03/13 13:14:26;;;;;;;5.35;1.55;;;16.90;99.80;;;;;;5053135;28;20029;-66
2022/03/13 13:16:58;;;;;;;;;;;16.70;99.90;;;;;;5053825;28;20175;-69
2022/03/13 13:19:25;;;;;;;4.45;0.90;;;17.00;98.20;;;;;;5053064;28;19904;-68
2022/03/13 13:22:03;;;;;;;4.15;1.15;;;16.80;97.60;;;;;;5052935;28;20445;-67
2022/03/13 13:24:35;;;;;;;2.30;0.70;;;;;;;;;;5053033;28;20013;-66
2022/03/13 13:27:05;;;;;;;2.25;0.47;;;;;;;;;;5053078;28;20104;-69
2022/03/13 13:29:31;;;;;;;1.25;0.55;;;;;;;;;;5053098;28;20017;-66
2022/03/13 13:32:16;;;;;;;1.55;0.30;;;;;;;;;;5053035;28;20051;-68
2022/03/13 13:34:44;;;;;;;1.52;0.93;;;;;;;;;;5053261;28;20025;-67
2022/03/13 13:37:10;;;;;;;1.50;0.40;;;;;;;;;;5052937;28;20032;-66
2022/03/13 13:39:36;;;;;;;3.03;0.65;;;;;;;;;;5052896;28;20393;-66
2022/03/13 13:42:03;;;;;;;2.28;0.60;;;;;;;;;;5052842;28;20029;-70
2022/03/13 13:44:32;;;;;;;1.25;0.50;;;;;;;;;;5052900;28;20020;-68
2022/03/13 13:47:05;;;;;;;7.40;2.92;;;;;;;;;;5052804;28;20057;-70
2022/03/13 13:49:32;;;;;;;2.42;0.93;;;16.50;98.90;;;;;;5052852;28;20017;-69
2022/03/13 13:52:10;;;;;;;4.63;1.42;;;16.70;98.70;;;;;;5052797;28;20021;-70
2022/03/13 13:54:36;;;;;;;3.05;1.58;;;;;;;;;;5052682;28;20021;-67
2022/03/13 13:57:02;;;;;;;3.00;1.52;;;16.60;97.80;;;;;;5053914;28;20028;-68
2022/03/13 13:59:34;;;;;;;3.08;1.05;;;16.90;99.80;;;;;;5057210;28;20054;-67
2022/03/13 14:02:11;;;;;;;8.48;3.92;;;17.00;99.80;;;;;;5056829;28;20040;-66
2022/03/13 14:04:42;;;;;;;6.35;2.70;;;;;;;;;;5056538;28;20048;-68
2022/03/13 14:07:09;;;;;;;3.42;1.02;;;;;;;;;;5057072;28;20055;-68
2022/03/13 14:09:35;;;;;;;3.90;1.30;;;;;;;;;;5056400;28;20025;-68
2022/03/13 14:12:02;;;;;;;4.78;1.10;;;;;;;;;;5038482;28;20401;-66
2022/03/13 14:14:28;;;;;;;2.65;0.63;;;;;;;;;;5038380;28;20366;-69
2022/03/13 14:16:55;;;;;;;3.03;1.55;;;;;;;;;;5056286;28;20025;-68
2022/03/13 14:19:22;;;;;;;3.08;1.70;;;;;;;;;;5056294;28;20083;-67
2022/03/13 14:21:48;;;;;;;3.17;0.88;;;;;;;;;;5056405;28;20082;-68
2022/03/13 14:24:14;;;;;;;5.28;2.65;;;;;;;;;;5056699;28;20024;-68
2022/03/13 14:26:40;;;;;;;2.90;0.70;;;;;;;;;;5056685;28;20028;-67
2022/03/13 14:29:06;;;;;;;2.38;1.02;;;;;;;;;;5056306;28;20021;-68
2022/03/13 14:31:33;;;;;;;3.25;1.95;;;;;;;;;;5056021;28;20032;-67
2022/03/13 14:33:59;;;;;;;4.85;2.15;;;;;;;;;;5055985;28;20071;-69